sensor_id;sensor_type;location;lat;lon;timestamp;pressure;altitude;pressure_sealevel;temperature;humidity
7660;BME280;3872;47.902;8.162;2023-03-01T00:02:12;92204.25;;;-1.38;100.00
7660;BME280;3872;47.902;8.162;2023-03-01T00:04:38;92196.41;;;-1.13;100.00
7660;BME280;3872;47.902;8.162;2023-03-01T00:07:05;92193.84;;;-1.13;100.00
7660;BME280;3872;47.902;8.162;2023-03-01T00:09:31;92189.69;;;-0.96;100.00
7660;BME280;3872;47.902;8.162;2023-03-01T00:11:58;92196.13;;;-1.05;100.00
7660;BME280;3872;47.902;8.162;2023-03-01T00:14:25;92205.03;;;-1.81;100.00
7660;BME280;3872;47.902;8.162;2023-03-01T00:16:51;92205.00;;;-2.06;100.00
7660;BME280;3872;47.902;8.162;2023-03-01T00:19:20;92200.44;;;-1.79;100.00
7660;BME280;3872;47.902;8.162;2023-03-01T00:21:48;92194.56;;;-1.25;100.00
7660;BME280;3872;47.902;8.162;2023-03-01T00:24:14;92199.31;;;-1.89;100.00
7660;BME280;3872;47.902;8.162;2023-03-01T00:26:42;92199.84;;;-2.06;100.00
7660;BME280;3872;47.902;8.162;2023-03-01T00:29:08;92196.63;;;-1.76;100.00
7660;BME280;3872;47.902;8.162;2023-03-01T00:31:35;92200.81;;;-1.75;100.00
7660;BME280;3872;47.902;8.162;2023-03-01T00:34:03;92189.22;;;-1.48;100.00
7660;BME280;3872;47.902;8.162;2023-03-01T00:36:33;92194.69;;;-1.20;100.00
7660;BME280;3872;47.902;8.162;2023-03-01T00:39:01;92186.97;;;-1.20;100.00
7660;BME280;3872;47.902;8.162;2023-03-01T00:41:28;92194.78;;;-1.69;100.00
7660;BME280;3872;47.902;8.162;2023-03-01T00:43:55;92196.28;;;-1.19;100.00
7660;BME280;3872;47.902;8.162;2023-03-01T00:46:23;92191.34;;;-1.38;100.00
7660;BME280;3872;47.902;8.162;2023-03-01T00:48:50;92187.69;;;-1.99;100.00
7660;BME280;3872;47.902;8.162;2023-03-01T00:51:18;92189.75;;;-1.58;100.00
7660;BME280;3872;47.902;8.162;2023-03-01T00:53:49;92188.47;;;-1.12;100.00
7660;BME280;3872;47.902;8.162;2023-03-01T00:56:17;92190.94;;;-1.60;100.00
7660;BME280;3872;47.902;8.162;2023-03-01T00:58:44;92174.13;;;-1.44;100.00
7660;BME280;3872;47.902;8.162;2023-03-01T01:01:12;92183.44;;;-1.43;100.00
7660;BME280;3872;47.902;8.162;2023-03-01T01:03:44;92173.00;;;-1.73;100.00
7660;BME280;3872;47.902;8.162;2023-03-01T01:06:16;92172.53;;;-1.64;100.00
7660;BME280;3872;47.902;8.162;2023-03-01T01:08:42;92170.16;;;-1.65;100.00
7660;BME280;3872;47.902;8.162;2023-03-01T01:11:11;92155.75;;;-1.54;100.00
7660;BME280;3872;47.902;8.162;2023-03-01T01:13:38;92153.34;;;-1.49;100.00
7660;BME280;3872;47.902;8.162;2023-03-01T01:16:06;92161.50;;;-1.16;100.00
7660;BME280;3872;47.902;8.162;2023-03-01T01:18:33;92156.97;;;-1.39;100.00
7660;BME280;3872;47.902;8.162;2023-03-01T01:21:04;92159.16;;;-1.36;100.00
7660;BME280;3872;47.902;8.162;2023-03-01T01:23:32;92158.34;;;-1.36;100.00
7660;BME280;3872;47.902;8.162;2023-03-01T01:26:03;92155.03;;;-1.62;100.00
7660;BME280;3872;47.902;8.162;2023-03-01T01:28:31;92149.31;;;-1.27;100.00
7660;BME280;3872;47.902;8.162;2023-03-01T01:30:58;92149.94;;;-1.13;100.00
7660;BME280;3872;47.902;8.162;2023-03-01T01:33:24;92148.66;;;-1.41;100.00
7660;BME280;3872;47.902;8.162;2023-03-01T01:35:52;92149.44;;;-1.40;100.00
7660;BME280;3872;47.902;8.162;2023-03-01T01:38:18;92151.91;;;-1.09;100.00
7660;BME280;3872;47.902;8.162;2023-03-01T01:40:46;92140.53;;;-1.63;100.00
7660;BME280;3872;47.902;8.162;2023-03-01T01:43:19;92143.03;;;-1.74;100.00
7660;BME280;3872;47.902;8.162;2023-03-01T01:45:48;92137.59;;;-1.11;100.00
7660;BME280;3872;47.902;8.162;2023-03-01T01:48:19;92129.44;;;-1.63;100.00
7660;BME280;3872;47.902;8.162;2023-03-01T01:50:56;92126.91;;;-1.70;100.00
7660;BME280;3872;47.902;8.162;2023-03-01T01:53:25;92129.94;;;-1.54;100.00
7660;BME280;3872;47.902;8.162;2023-03-01T01:55:54;92120.78;;;-1.14;100.00
7660;BME280;3872;47.902;8.162;2023-03-01T01:58:24;92120.81;;;-1.02;100.00
7660;BME280;3872;47.902;8.162;2023-03-01T02:00:54;92098.03;;;-1.24;100.00
7660;BME280;3872;47.902;8.162;2023-03-01T02:03:24;92102.47;;;-1.12;100.00
7660;BME280;3872;47.902;8.162;2023-03-01T02:05:57;92112.03;;;-1.31;100.00
7660;BME280;3872;47.902;8.162;2023-03-01T02:08:27;92117.84;;;-0.88;100.00
7660;BME280;3872;47.902;8.162;2023-03-01T02:10:56;92111.28;;;-0.72;100.00
7660;BME280;3872;47.902;8.162;2023-03-01T02:13:24;92110.97;;;-0.94;100.00
7660;BME280;3872;47.902;8.162;2023-03-01T02:15:55;92111.59;;;-0.80;100.00
7660;BME280;3872;47.902;8.162;2023-03-01T02:18:23;92108.63;;;-0.95;100.00
7660;BME280;3872;47.902;8.162;2023-03-01T02:21:04;92098.34;;;-1.32;100.00
7660;BME280;3872;47.902;8.162;2023-03-01T02:23:32;92096.66;;;-1.08;100.00
7660;BME280;3872;47.902;8.162;2023-03-01T02:26:05;92086.66;;;-0.86;100.00
7660;BME280;3872;47.902;8.162;2023-03-01T02:28:36;92095.63;;;-1.37;100.00
7660;BME280;3872;47.902;8.162;2023-03-01T02:31:05;92094.59;;;-1.17;100.00
7660;BME280;3872;47.902;8.162;2023-03-01T02:33:50;92099.16;;;-1.20;100.00
7660;BME280;3872;47.902;8.162;2023-03-01T02:36:20;92088.44;;;-0.87;100.00
7660;BME280;3872;47.902;8.162;2023-03-01T02:38:51;92086.56;;;-0.98;100.00
7660;BME280;3872;47.902;8.162;2023-03-01T02:41:19;92087.59;;;-0.99;100.00
7660;BME280;3872;47.902;8.162;2023-03-01T02:43:47;92078.44;;;-0.83;100.00
7660;BME280;3872;47.902;8.162;2023-03-01T02:46:16;92075.63;;;-1.11;100.00
7660;BME280;3872;47.902;8.162;2023-03-01T02:48:45;92079.66;;;-1.15;100.00
7660;BME280;3872;47.902;8.162;2023-03-01T02:51:26;92077.16;;;-1.22;100.00
7660;BME280;3872;47.902;8.162;2023-03-01T02:54:02;92067.63;;;-1.22;100.00
7660;BME280;3872;47.902;8.162;2023-03-01T02:56:34;92061.50;;;-1.09;100.00
7660;BME280;3872;47.902;8.162;2023-03-01T02:59:02;92056.75;;;-1.12;100.00
7660;BME280;3872;47.902;8.162;2023-03-01T03:01:29;92058.84;;;-1.02;100.00
7660;BME280;3872;47.902;8.162;2023-03-01T03:04:04;92057.75;;;-0.83;100.00
7660;BME280;3872;47.902;8.162;2023-03-01T03:06:31;92052.13;;;-0.92;100.00
7660;BME280;3872;47.902;8.162;2023-03-01T03:08:58;92052.44;;;-1.48;100.00
7660;BME280;3872;47.902;8.162;2023-03-01T03:11:25;92054.53;;;-1.38;100.00
7660;BME280;3872;47.902;8.162;2023-03-01T03:13:52;92057.94;;;-1.08;100.00
7660;BME280;3872;47.902;8.162;2023-03-01T03:16:20;92050.22;;;-0.96;100.00
7660;BME280;3872;47.902;8.162;2023-03-01T03:18:47;92049.41;;;-1.27;100.00
7660;BME280;3872;47.902;8.162;2023-03-01T03:21:14;92042.63;;;-1.39;100.00
7660;BME280;3872;47.902;8.162;2023-03-01T03:23:41;92040.25;;;-1.23;100.00
7660;BME280;3872;47.902;8.162;2023-03-01T03:26:08;92041.94;;;-1.16;100.00
7660;BME280;3872;47.902;8.162;2023-03-01T03:28:39;92046.06;;;-1.45;100.00
7660;BME280;3872;47.902;8.162;2023-03-01T03:31:06;92042.75;;;-1.04;100.00
7660;BME280;3872;47.902;8.162;2023-03-01T03:33:35;92048.28;;;-1.01;100.00
7660;BME280;3872;47.902;8.162;2023-03-01T03:36:02;92049.22;;;-1.43;100.00
7660;BME280;3872;47.902;8.162;2023-03-01T03:38:28;92039.16;;;-1.15;100.00
7660;BME280;3872;47.902;8.162;2023-03-01T03:41:00;92043.44;;;-1.09;100.00
7660;BME280;3872;47.902;8.162;2023-03-01T03:43:28;92051.59;;;-1.60;100.00
7660;BME280;3872;47.902;8.162;2023-03-01T03:45:55;92048.44;;;-1.62;100.00
7660;BME280;3872;47.902;8.162;2023-03-01T03:48:24;92043.91;;;-1.00;100.00
7660;BME280;3872;47.902;8.162;2023-03-01T03:50:53;92040.00;;;-1.51;100.00
7660;BME280;3872;47.902;8.162;2023-03-01T03:53:21;92042.63;;;-1.39;100.00
7660;BME280;3872;47.902;8.162;2023-03-01T03:55:48;92035.91;;;-1.10;100.00
7660;BME280;3872;47.902;8.162;2023-03-01T03:58:18;92028.09;;;-1.70;100.00
7660;BME280;3872;47.902;8.162;2023-03-01T04:00:47;92033.50;;;-1.24;100.00
7660;BME280;3872;47.902;8.162;2023-03-01T04:03:15;92027.63;;;-1.31;100.00
7660;BME280;3872;47.902;8.162;2023-03-01T04:05:44;92024.44;;;-1.14;100.00
7660;BME280;3872;47.902;8.162;2023-03-01T04:08:12;92029.94;;;-1.11;100.00
7660;BME280;3872;47.902;8.162;2023-03-01T04:10:40;92025.34;;;-1.09;100.00
7660;BME280;3872;47.902;8.162;2023-03-01T04:13:09;92025.22;;;-1.14;100.00
7660;BME280;3872;47.902;8.162;2023-03-01T04:15:36;92022.19;;;-1.41;100.00
7660;BME280;3872;47.902;8.162;2023-03-01T04:18:03;92027.34;;;-1.41;100.00
7660;BME280;3872;47.902;8.162;2023-03-01T04:20:32;92027.25;;;-1.04;100.00
7660;BME280;3872;47.902;8.162;2023-03-01T04:23:01;92017.84;;;-0.99;100.00
7660;BME280;3872;47.902;8.162;2023-03-01T04:25:37;92016.81;;;-0.68;100.00
7660;BME280;3872;47.902;8.162;2023-03-01T04:28:04;92017.13;;;-0.76;100.00
7660;BME280;3872;47.902;8.162;2023-03-01T04:30:31;92019.31;;;-1.03;100.00
7660;BME280;3872;47.902;8.162;2023-03-01T04:33:02;92013.03;;;-0.95;100.00
7660;BME280;3872;47.902;8.162;2023-03-01T04:35:29;92001.84;;;-1.19;100.00
7660;BME280;3872;47.902;8.162;2023-03-01T04:37:55;92000.13;;;-0.84;100.00
7660;BME280;3872;47.902;8.162;2023-03-01T04:40:22;92008.69;;;-0.83;100.00
7660;BME280;3872;47.902;8.162;2023-03-01T04:42:50;92012.50;;;-0.86;100.00
7660;BME280;3872;47.902;8.162;2023-03-01T04:45:16;92006.38;;;-0.50;100.00
7660;BME280;3872;47.902;8.162;2023-03-01T04:47:45;91999.94;;;-0.70;100.00
7660;BME280;3872;47.902;8.162;2023-03-01T04:50:13;92010.41;;;-0.65;100.00
7660;BME280;3872;47.902;8.162;2023-03-01T04:52:40;92008.72;;;-0.60;100.00
7660;BME280;3872;47.902;8.162;2023-03-01T04:55:08;92006.41;;;-0.91;100.00
7660;BME280;3872;47.902;8.162;2023-03-01T04:57:35;92001.56;;;-0.99;100.00
7660;BME280;3872;47.902;8.162;2023-03-01T05:00:05;91999.97;;;-1.12;100.00
7660;BME280;3872;47.902;8.162;2023-03-01T05:02:49;91998.97;;;-1.41;100.00
7660;BME280;3872;47.902;8.162;2023-03-01T05:05:24;91994.44;;;-0.86;100.00
7660;BME280;3872;47.902;8.162;2023-03-01T05:07:55;91995.59;;;-1.41;100.00
7660;BME280;3872;47.902;8.162;2023-03-01T05:10:22;91996.16;;;-1.09;100.00
7660;BME280;3872;47.902;8.162;2023-03-01T05:12:50;91993.13;;;-1.06;100.00
7660;BME280;3872;47.902;8.162;2023-03-01T05:15:19;91996.97;;;-0.97;100.00
7660;BME280;3872;47.902;8.162;2023-03-01T05:17:50;91994.31;;;-1.21;100.00
7660;BME280;3872;47.902;8.162;2023-03-01T05:20:17;91990.59;;;-0.83;100.00
7660;BME280;3872;47.902;8.162;2023-03-01T05:22:48;91989.38;;;-1.22;100.00
7660;BME280;3872;47.902;8.162;2023-03-01T05:25:14;91983.47;;;-1.41;100.00
7660;BME280;3872;47.902;8.162;2023-03-01T05:27:41;91977.69;;;-1.25;100.00
7660;BME280;3872;47.902;8.162;2023-03-01T05:30:08;91981.44;;;-1.50;100.00
7660;BME280;3872;47.902;8.162;2023-03-01T05:32:43;91987.22;;;-1.55;100.00
7660;BME280;3872;47.902;8.162;2023-03-01T05:35:10;91971.31;;;-1.22;100.00
7660;BME280;3872;47.902;8.162;2023-03-01T05:37:40;91981.72;;;-1.59;100.00
7660;BME280;3872;47.902;8.162;2023-03-01T05:40:08;91964.13;;;-1.20;100.00
7660;BME280;3872;47.902;8.162;2023-03-01T05:42:42;91972.66;;;-1.20;100.00
7660;BME280;3872;47.902;8.162;2023-03-01T05:45:09;91965.75;;;-1.07;100.00
7660;BME280;3872;47.902;8.162;2023-03-01T05:47:35;91970.25;;;-1.03;100.00
7660;BME280;3872;47.902;8.162;2023-03-01T05:50:04;91961.13;;;-1.05;100.00
7660;BME280;3872;47.902;8.162;2023-03-01T05:52:32;91961.91;;;-1.05;100.00
7660;BME280;3872;47.902;8.162;2023-03-01T05:54:59;91959.69;;;-0.90;100.00
7660;BME280;3872;47.902;8.162;2023-03-01T05:57:27;91953.88;;;-1.38;100.00
7660;BME280;3872;47.902;8.162;2023-03-01T05:59:54;91964.66;;;-0.76;100.00
7660;BME280;3872;47.902;8.162;2023-03-01T06:02:20;91954.09;;;-0.75;100.00
7660;BME280;3872;47.902;8.162;2023-03-01T06:04:47;91958.34;;;-0.92;100.00
7660;BME280;3872;47.902;8.162;2023-03-01T06:07:15;91958.78;;;-0.95;100.00
7660;BME280;3872;47.902;8.162;2023-03-01T06:09:41;91960.59;;;-1.37;100.00
7660;BME280;3872;47.902;8.162;2023-03-01T06:12:08;91966.94;;;-1.22;100.00
7660;BME280;3872;47.902;8.162;2023-03-01T06:14:34;91958.59;;;-0.94;100.00
7660;BME280;3872;47.902;8.162;2023-03-01T06:17:01;91957.91;;;-0.89;100.00
7660;BME280;3872;47.902;8.162;2023-03-01T06:19:28;91957.06;;;-1.13;100.00
7660;BME280;3872;47.902;8.162;2023-03-01T06:21:54;91961.91;;;-1.05;100.00
7660;BME280;3872;47.902;8.162;2023-03-01T06:24:22;91952.97;;;-1.32;100.00
7660;BME280;3872;47.902;8.162;2023-03-01T06:26:49;91959.88;;;-1.14;100.00
7660;BME280;3872;47.902;8.162;2023-03-01T06:29:15;91957.03;;;-1.25;100.00
7660;BME280;3872;47.902;8.162;2023-03-01T06:31:42;91951.72;;;-1.00;100.00
7660;BME280;3872;47.902;8.162;2023-03-01T06:34:08;91966.34;;;-0.82;100.00
7660;BME280;3872;47.902;8.162;2023-03-01T06:36:38;91962.09;;;-1.60;100.00
7660;BME280;3872;47.902;8.162;2023-03-01T06:39:05;91954.69;;;-1.26;100.00
7660;BME280;3872;47.902;8.162;2023-03-01T06:41:33;91957.44;;;-1.39;100.00
7660;BME280;3872;47.902;8.162;2023-03-01T06:44:00;91962.16;;;-1.66;100.00
7660;BME280;3872;47.902;8.162;2023-03-01T06:46:27;91964.91;;;-1.79;100.00
7660;BME280;3872;47.902;8.162;2023-03-01T06:48:54;91952.84;;;-1.37;100.00
7660;BME280;3872;47.902;8.162;2023-03-01T06:51:20;91965.25;;;-1.58;100.00
7660;BME280;3872;47.902;8.162;2023-03-01T06:53:47;91953.09;;;-1.27;100.00
7660;BME280;3872;47.902;8.162;2023-03-01T06:56:13;91963.00;;;-1.24;100.00
7660;BME280;3872;47.902;8.162;2023-03-01T06:58:41;91960.69;;;-1.02;100.00
7660;BME280;3872;47.902;8.162;2023-03-01T07:01:08;91960.34;;;-1.06;100.00
7660;BME280;3872;47.902;8.162;2023-03-01T07:03:35;91960.91;;;-1.04;100.00
7660;BME280;3872;47.902;8.162;2023-03-01T07:06:01;91976.06;;;-1.67;100.00
7660;BME280;3872;47.902;8.162;2023-03-01T07:08:28;91975.03;;;-1.48;100.00
7660;BME280;3872;47.902;8.162;2023-03-01T07:10:55;91968.38;;;-0.72;100.00
7660;BME280;3872;47.902;8.162;2023-03-01T07:13:22;91958.78;;;-0.95;100.00
7660;BME280;3872;47.902;8.162;2023-03-01T07:15:50;91965.47;;;-1.17;100.00
7660;BME280;3872;47.902;8.162;2023-03-01T07:18:16;91966.44;;;-0.89;100.00
7660;BME280;3872;47.902;8.162;2023-03-01T07:20:43;91959.22;;;-1.10;100.00
7660;BME280;3872;47.902;8.162;2023-03-01T07:23:09;91957.13;;;-1.31;100.00
7660;BME280;3872;47.902;8.162;2023-03-01T07:25:36;91962.16;;;-0.95;100.00
7660;BME280;3872;47.902;8.162;2023-03-01T07:28:02;91961.06;;;-0.87;100.00
7660;BME280;3872;47.902;8.162;2023-03-01T07:30:29;91955.69;;;-0.74;100.00
7660;BME280;3872;47.902;8.162;2023-03-01T07:32:57;91951.41;;;-0.80;100.00
7660;BME280;3872;47.902;8.162;2023-03-01T07:35:25;91955.31;;;-0.89;100.00
7660;BME280;3872;47.902;8.162;2023-03-01T07:37:53;91957.13;;;-0.78;100.00
7660;BME280;3872;47.902;8.162;2023-03-01T07:40:19;91957.09;;;-1.01;100.00
7660;BME280;3872;47.902;8.162;2023-03-01T07:42:46;91954.00;;;-0.80;100.00
7660;BME280;3872;47.902;8.162;2023-03-01T07:45:12;91957.09;;;-1.01;100.00
7660;BME280;3872;47.902;8.162;2023-03-01T07:47:39;91951.56;;;-1.16;100.00
7660;BME280;3872;47.902;8.162;2023-03-01T07:50:09;91952.06;;;-0.96;100.00
7660;BME280;3872;47.902;8.162;2023-03-01T07:52:35;91945.94;;;-1.13;100.00
7660;BME280;3872;47.902;8.162;2023-03-01T07:55:02;91946.78;;;-0.90;100.00
7660;BME280;3872;47.902;8.162;2023-03-01T07:57:29;91948.25;;;-0.82;100.00
7660;BME280;3872;47.902;8.162;2023-03-01T07:59:55;91939.13;;;-1.08;100.00
7660;BME280;3872;47.902;8.162;2023-03-01T08:02:22;91938.06;;;-0.65;100.00
7660;BME280;3872;47.902;8.162;2023-03-01T08:04:48;91937.94;;;-1.35;100.00
7660;BME280;3872;47.902;8.162;2023-03-01T08:07:16;91937.78;;;-0.99;100.00
7660;BME280;3872;47.902;8.162;2023-03-01T08:09:43;91933.31;;;-0.68;100.00
7660;BME280;3872;47.902;8.162;2023-03-01T08:12:09;91931.75;;;-0.93;100.00
7660;BME280;3872;47.902;8.162;2023-03-01T08:14:36;91930.41;;;-0.72;100.00
7660;BME280;3872;47.902;8.162;2023-03-01T08:17:02;91927.94;;;-0.67;100.00
7660;BME280;3872;47.902;8.162;2023-03-01T08:19:29;91935.56;;;-0.49;100.00
7660;BME280;3872;47.902;8.162;2023-03-01T08:21:56;91925.34;;;-0.90;100.00
7660;BME280;3872;47.902;8.162;2023-03-01T08:24:25;91940.44;;;-1.59;100.00
7660;BME280;3872;47.902;8.162;2023-03-01T08:26:51;91935.38;;;-1.24;100.00
7660;BME280;3872;47.902;8.162;2023-03-01T08:29:18;91939.94;;;-1.37;100.00
7660;BME280;3872;47.902;8.162;2023-03-01T08:31:44;91938.97;;;-1.13;100.00
7660;BME280;3872;47.902;8.162;2023-03-01T08:34:13;91933.75;;;-0.83;100.00
7660;BME280;3872;47.902;8.162;2023-03-01T08:36:42;91941.94;;;-0.98;100.00
7660;BME280;3872;47.902;8.162;2023-03-01T08:39:10;91938.94;;;-0.83;100.00
7660;BME280;3872;47.902;8.162;2023-03-01T08:41:38;91940.34;;;-1.10;100.00
7660;BME280;3872;47.902;8.162;2023-03-01T08:44:06;91942.84;;;-0.92;100.00
7660;BME280;3872;47.902;8.162;2023-03-01T08:46:34;91941.97;;;-0.74;100.00
7660;BME280;3872;47.902;8.162;2023-03-01T08:49:03;91947.28;;;-1.23;100.00
7660;BME280;3872;47.902;8.162;2023-03-01T08:51:30;91930.41;;;-0.72;100.00
7660;BME280;3872;47.902;8.162;2023-03-01T08:53:57;91928.59;;;-0.83;100.00
7660;BME280;3872;47.902;8.162;2023-03-01T08:56:24;91922.63;;;-1.07;100.00
7660;BME280;3872;47.902;8.162;2023-03-01T08:58:52;91917.59;;;-0.67;100.00
7660;BME280;3872;47.902;8.162;2023-03-01T09:01:18;91930.13;;;-1.05;100.00
7660;BME280;3872;47.902;8.162;2023-03-01T09:03:45;91920.25;;;-0.27;100.00
7660;BME280;3872;47.902;8.162;2023-03-01T09:06:12;91921.97;;;-0.32;100.00
7660;BME280;3872;47.902;8.162;2023-03-01T09:08:40;91910.28;;;-0.82;100.00
7660;BME280;3872;47.902;8.162;2023-03-01T09:11:09;91910.97;;;-0.51;100.00
7660;BME280;3872;47.902;8.162;2023-03-01T09:13:36;91906.94;;;-0.07;100.00
7660;BME280;3872;47.902;8.162;2023-03-01T09:16:06;91904.66;;;0.08;100.00
7660;BME280;3872;47.902;8.162;2023-03-01T09:18:34;91896.94;;;-0.04;100.00
7660;BME280;3872;47.902;8.162;2023-03-01T09:21:02;91894.09;;;-0.54;100.00
7660;BME280;3872;47.902;8.162;2023-03-01T09:23:33;91894.53;;;-0.33;100.00
7660;BME280;3872;47.902;8.162;2023-03-01T09:25:59;91895.56;;;-0.69;100.00
7660;BME280;3872;47.902;8.162;2023-03-01T09:28:26;91900.72;;;-0.34;100.00
7660;BME280;3872;47.902;8.162;2023-03-01T09:30:52;91895.59;;;0.06;100.00
7660;BME280;3872;47.902;8.162;2023-03-01T09:33:20;91902.44;;;-0.52;100.00
7660;BME280;3872;47.902;8.162;2023-03-01T09:35:47;91893.00;;;-0.58;100.00
7660;BME280;3872;47.902;8.162;2023-03-01T09:38:13;91903.69;;;-0.03;100.00
7660;BME280;3872;47.902;8.162;2023-03-01T09:40:43;91903.56;;;0.04;100.00
7660;BME280;3872;47.902;8.162;2023-03-01T09:43:18;91912.97;;;-0.76;100.00
7660;BME280;3872;47.902;8.162;2023-03-01T09:45:49;91914.44;;;-0.22;100.00
7660;BME280;3872;47.902;8.162;2023-03-01T09:48:22;91915.94;;;0.14;100.00
7660;BME280;3872;47.902;8.162;2023-03-01T09:50:50;91909.81;;;-0.32;100.00
7660;BME280;3872;47.902;8.162;2023-03-01T09:53:20;91912.53;;;0.13;100.00
7660;BME280;3872;47.902;8.162;2023-03-01T09:55:50;91916.56;;;0.21;100.00
7660;BME280;3872;47.902;8.162;2023-03-01T09:58:41;91907.25;;;0.08;100.00
7660;BME280;3872;47.902;8.162;2023-03-01T10:01:30;91899.38;;;-0.37;100.00
7660;BME280;3872;47.902;8.162;2023-03-01T10:04:23;91903.72;;;-0.26;100.00
7660;BME280;3872;47.902;8.162;2023-03-01T10:06:58;91897.47;;;0.10;100.00
7660;BME280;3872;47.902;8.162;2023-03-01T10:09:30;91888.94;;;0.83;100.00
7660;BME280;3872;47.902;8.162;2023-03-01T10:12:00;91903.84;;;-0.21;100.00
7660;BME280;3872;47.902;8.162;2023-03-01T10:14:32;91894.78;;;0.05;100.00
7660;BME280;3872;47.902;8.162;2023-03-01T10:17:02;91896.88;;;0.20;100.00
7660;BME280;3872;47.902;8.162;2023-03-01T10:19:37;91881.06;;;0.61;100.00
7660;BME280;3872;47.902;8.162;2023-03-01T10:22:11;91893.88;;;0.11;100.00
7660;BME280;3872;47.902;8.162;2023-03-01T10:24:39;91894.16;;;0.55;100.00
7660;BME280;3872;47.902;8.162;2023-03-01T10:27:09;91894.31;;;0.36;100.00
7660;BME280;3872;47.902;8.162;2023-03-01T10:29:45;91890.94;;;0.08;100.00
7660;BME280;3872;47.902;8.162;2023-03-01T10:32:15;91893.16;;;0.27;100.00
7660;BME280;3872;47.902;8.162;2023-03-01T10:34:43;91885.91;;;0.29;100.00
7660;BME280;3872;47.902;8.162;2023-03-01T10:37:12;91889.09;;;0.76;100.00
7660;BME280;3872;47.902;8.162;2023-03-01T10:39:55;91890.06;;;0.02;100.00
7660;BME280;3872;47.902;8.162;2023-03-01T10:42:26;91882.03;;;0.89;100.00
7660;BME280;3872;47.902;8.162;2023-03-01T10:44:54;91877.63;;;0.44;100.00
7660;BME280;3872;47.902;8.162;2023-03-01T10:47:22;91871.16;;;0.58;100.00
7660;BME280;3872;47.902;8.162;2023-03-01T10:49:56;91875.25;;;0.26;100.00
7660;BME280;3872;47.902;8.162;2023-03-01T10:52:26;91869.50;;;0.35;100.00
7660;BME280;3872;47.902;8.162;2023-03-01T10:54:55;91868.66;;;0.80;100.00
7660;BME280;3872;47.902;8.162;2023-03-01T10:57:43;91875.03;;;1.23;100.00
7660;BME280;3872;47.902;8.162;2023-03-01T11:00:22;91870.22;;;0.64;100.00
7660;BME280;3872;47.902;8.162;2023-03-01T11:03:01;91860.25;;;0.73;100.00
7660;BME280;3872;47.902;8.162;2023-03-01T11:05:31;91867.13;;;0.34;100.00
7660;BME280;3872;47.902;8.162;2023-03-01T11:07:59;91860.81;;;0.75;100.00
7660;BME280;3872;47.902;8.162;2023-03-01T11:10:28;91857.66;;;1.40;100.00
7660;BME280;3872;47.902;8.162;2023-03-01T11:13:06;91855.13;;;1.45;100.00
7660;BME280;3872;47.902;8.162;2023-03-01T11:15:34;91851.19;;;1.42;100.00
7660;BME280;3872;47.902;8.162;2023-03-01T11:18:01;91857.47;;;0.91;100.00
7660;BME280;3872;47.902;8.162;2023-03-01T11:20:32;91846.94;;;1.53;100.00
7660;BME280;3872;47.902;8.162;2023-03-01T11:23:02;91852.47;;;1.40;100.00
7660;BME280;3872;47.902;8.162;2023-03-01T11:25:34;91845.31;;;0.92;100.00
7660;BME280;3872;47.902;8.162;2023-03-01T11:28:03;91841.81;;;1.20;100.00
7660;BME280;3872;47.902;8.162;2023-03-01T11:30:33;91843.72;;;1.63;100.00
7660;BME280;3872;47.902;8.162;2023-03-01T11:33:10;91837.66;;;1.79;100.00
7660;BME280;3872;47.902;8.162;2023-03-01T11:35:42;91841.19;;;1.51;100.00
7660;BME280;3872;47.902;8.162;2023-03-01T11:38:20;91839.91;;;1.70;100.00
7660;BME280;3872;47.902;8.162;2023-03-01T11:40:50;91838.31;;;0.92;100.00
7660;BME280;3872;47.902;8.162;2023-03-01T11:43:26;91834.22;;;1.13;100.00
7660;BME280;3872;47.902;8.162;2023-03-01T11:49:04;91832.41;;;1.52;100.00
7660;BME280;3872;47.902;8.162;2023-03-01T11:51:47;91833.75;;;1.76;100.00
7660;BME280;3872;47.902;8.162;2023-03-01T11:54:27;91829.03;;;1.51;100.00
7660;BME280;3872;47.902;8.162;2023-03-01T11:57:03;91834.56;;;1.22;100.00
7660;BME280;3872;47.902;8.162;2023-03-01T11:59:48;91825.28;;;1.64;100.00
7660;BME280;3872;47.902;8.162;2023-03-01T12:02:37;91834.63;;;1.43;100.00
7660;BME280;3872;47.902;8.162;2023-03-01T12:05:25;91821.22;;;1.30;100.00
7660;BME280;3872;47.902;8.162;2023-03-01T12:07:59;91816.19;;;1.62;100.00
7660;BME280;3872;47.902;8.162;2023-03-01T12:10:29;91817.03;;;1.29;100.00
7660;BME280;3872;47.902;8.162;2023-03-01T12:13:13;91812.31;;;1.04;100.00
7660;BME280;3872;47.902;8.162;2023-03-01T12:19:06;91812.81;;;1.61;100.00
7660;BME280;3872;47.902;8.162;2023-03-01T12:21:45;91813.19;;;1.91;100.00
7660;BME280;3872;47.902;8.162;2023-03-01T12:24:29;91805.41;;;1.70;100.00
7660;BME280;3872;47.902;8.162;2023-03-01T12:27:12;91801.28;;;2.22;100.00
7660;BME280;3872;47.902;8.162;2023-03-01T12:29:48;91799.66;;;2.43;100.00
7660;BME280;3872;47.902;8.162;2023-03-01T12:32:28;91796.03;;;1.08;100.00
7660;BME280;3872;47.902;8.162;2023-03-01T12:35:25;91797.47;;;1.38;100.00
7660;BME280;3872;47.902;8.162;2023-03-01T12:38:00;91794.72;;;1.66;100.00
7660;BME280;3872;47.902;8.162;2023-03-01T12:40:51;91799.78;;;1.56;100.00
7660;BME280;3872;47.902;8.162;2023-03-01T12:43:33;91791.16;;;1.50;100.00
7660;BME280;3872;47.902;8.162;2023-03-01T12:46:14;91792.00;;;1.56;100.00
7660;BME280;3872;47.902;8.162;2023-03-01T12:48:51;91777.00;;;2.07;100.00
7660;BME280;3872;47.902;8.162;2023-03-01T12:51:24;91785.38;;;2.41;100.00
7660;BME280;3872;47.902;8.162;2023-03-01T12:53:54;91776.56;;;2.73;100.00
7660;BME280;3872;47.902;8.162;2023-03-01T12:56:25;91767.16;;;2.67;100.00
7660;BME280;3872;47.902;8.162;2023-03-01T12:58:59;91758.47;;;2.89;100.00
7660;BME280;3872;47.902;8.162;2023-03-01T13:01:36;91755.16;;;2.61;100.00
7660;BME280;3872;47.902;8.162;2023-03-01T13:04:18;91758.81;;;3.02;100.00
7660;BME280;3872;47.902;8.162;2023-03-01T13:06:57;91763.91;;;2.50;100.00
7660;BME280;3872;47.902;8.162;2023-03-01T13:09:30;91758.41;;;2.79;100.00
7660;BME280;3872;47.902;8.162;2023-03-01T13:11:59;91762.56;;;2.16;100.00
7660;BME280;3872;47.902;8.162;2023-03-01T13:14:46;91752.84;;;2.65;100.00
7660;BME280;3872;47.902;8.162;2023-03-01T13:17:46;91751.91;;;2.44;100.00
7660;BME280;3872;47.902;8.162;2023-03-01T13:20:15;91759.91;;;2.11;100.00
7660;BME280;3872;47.902;8.162;2023-03-01T13:22:45;91743.59;;;2.79;100.00
7660;BME280;3872;47.902;8.162;2023-03-01T13:25:15;91754.88;;;2.58;100.00
7660;BME280;3872;47.902;8.162;2023-03-01T13:27:44;91761.44;;;3.02;100.00
7660;BME280;3872;47.902;8.162;2023-03-01T13:30:39;91771.22;;;2.00;100.00
7660;BME280;3872;47.902;8.162;2023-03-01T13:33:41;91768.38;;;2.01;100.00
7660;BME280;3872;47.902;8.162;2023-03-01T13:36:09;91772.50;;;2.24;100.00
7660;BME280;3872;47.902;8.162;2023-03-01T13:38:45;91765.94;;;2.16;100.00